createdAt,value
2023-05-08T00:01:31.668Z,7.38
2023-05-08T00:03:59.706Z,7.29
2023-05-08T00:06:30.426Z,7.29
2023-05-08T00:08:57.860Z,7.48
2023-05-08T00:11:25.164Z,7.34
2023-05-08T00:13:52.787Z,7.20
2023-05-08T00:16:19.692Z,7.33
2023-05-08T00:18:47.478Z,7.24
2023-05-08T00:21:16.311Z,7.29
2023-05-08T00:23:43.667Z,7.27
2023-05-08T00:26:11.096Z,7.34
2023-05-08T00:28:40.075Z,7.19
2023-05-08T00:31:07.330Z,7.18
2023-05-08T00:33:34.901Z,7.23
2023-05-08T00:36:02.793Z,7.23
2023-05-08T00:38:31.828Z,7.21
2023-05-08T00:40:59.204Z,7.28
2023-05-08T00:43:28.530Z,7.30
2023-05-08T00:45:57.704Z,7.26
2023-05-08T00:48:26.309Z,7.57
2023-05-08T00:50:55.222Z,7.31
2023-05-08T00:53:23.391Z,7.30
2023-05-08T00:55:51.925Z,7.20
2023-05-08T00:58:21.321Z,7.28
2023-05-08T01:00:50.400Z,7.26
2023-05-08T01:03:18.158Z,7.30
2023-05-08T01:05:46.877Z,7.40
2023-05-08T01:08:14.274Z,7.27
2023-05-08T01:11:22.277Z,7.18
2023-05-08T01:14:07.948Z,7.43
2023-05-08T01:16:44.679Z,7.20
2023-05-08T01:19:24.109Z,7.11
2023-05-08T01:22:24.549Z,7.17
2023-05-08T01:25:19.698Z,7.25
2023-05-08T01:27:57.036Z,7.12
2023-05-08T01:30:42.721Z,6.92
2023-05-08T01:33:36.305Z,7.05
2023-05-08T01:36:17.708Z,7.19
2023-05-08T01:38:51.167Z,7.09
2023-05-08T01:41:28.501Z,7.09
2023-05-08T01:44:09.069Z,7.00
2023-05-08T01:46:37.040Z,7.25
2023-05-08T01:49:08.823Z,7.29
2023-05-08T01:51:49.151Z,7.21
2023-05-08T01:54:20.854Z,7.23
2023-05-08T01:56:49.487Z,7.08
2023-05-08T01:59:20.834Z,7.12
2023-05-08T02:01:50.119Z,7.08
2023-05-08T02:04:17.771Z,7.29
2023-05-08T02:06:45.632Z,7.40
2023-05-08T02:09:13.298Z,7.28
2023-05-08T02:11:43.134Z,7.20
2023-05-08T02:14:12.887Z,7.07
2023-05-08T02:16:41.227Z,6.98
2023-05-08T02:19:09.047Z,7.06
2023-05-08T02:21:37.673Z,6.94
2023-05-08T02:24:05.282Z,7.06
2023-05-08T02:26:35.171Z,7.00
2023-05-08T02:29:04.001Z,6.99
2023-05-08T02:31:31.892Z,7.04
2023-05-08T02:34:00.133Z,6.94
2023-05-08T02:36:31.462Z,6.95
2023-05-08T02:38:59.552Z,6.93
2023-05-08T02:41:30.995Z,7.00
2023-05-08T02:43:58.552Z,6.93
2023-05-08T02:46:32.680Z,6.86
2023-05-08T02:49:01.184Z,6.79
2023-05-08T02:51:55.930Z,6.80
2023-05-08T02:54:24.908Z,6.90
2023-05-08T02:57:31.407Z,7.10
2023-05-08T03:00:10.116Z,6.97
2023-05-08T03:03:13.903Z,7.11
2023-05-08T03:05:46.743Z,6.98
2023-05-08T03:08:22.093Z,6.94
2023-05-08T03:10:51.385Z,6.92
2023-05-08T03:13:19.828Z,6.90
2023-05-08T03:15:51.867Z,6.98
2023-05-08T03:18:21.660Z,7.08
2023-05-08T03:20:51.613Z,6.98
2023-05-08T03:23:21.897Z,7.00
2023-05-08T03:25:49.386Z,6.97
2023-05-08T03:28:18.100Z,7.23
2023-05-08T03:30:45.672Z,7.14
2023-05-08T03:33:14.213Z,7.20
2023-05-08T03:35:41.974Z,6.99
2023-05-08T03:38:09.945Z,7.03
2023-05-08T03:40:38.878Z,6.95
2023-05-08T03:43:08.234Z,6.90
2023-05-08T03:45:41.722Z,6.99
2023-05-08T03:48:10.837Z,6.96
2023-05-08T03:50:39.353Z,6.86
2023-05-08T03:53:06.823Z,7.04
2023-05-08T03:55:34.220Z,7.26
2023-05-08T03:58:17.515Z,7.21
2023-05-08T04:00:59.658Z,7.18
2023-05-08T04:04:04.384Z,7.26
2023-05-08T04:06:51.345Z,7.30
2023-05-08T04:10:02.480Z,7.16
2023-05-08T04:12:39.045Z,7.11
2023-05-08T04:15:21.140Z,7.21
2023-05-08T04:17:59.940Z,7.15
2023-05-08T04:20:28.446Z,7.48
2023-05-08T04:22:59.638Z,7.35
2023-05-08T04:25:27.403Z,7.15
2023-05-08T04:27:56.334Z,7.24
2023-05-08T04:30:24.371Z,7.11
2023-05-08T04:32:51.934Z,7.03
2023-05-08T04:35:19.702Z,6.89
2023-05-08T04:37:48.188Z,7.30
2023-05-08T04:40:15.756Z,7.22
2023-05-08T04:42:43.792Z,7.15
2023-05-08T04:45:11.956Z,6.91
2023-05-08T04:47:39.858Z,7.05
2023-05-08T04:50:07.501Z,6.92
2023-05-08T04:52:34.766Z,7.17
2023-05-08T04:55:02.200Z,6.96
2023-05-08T04:57:29.316Z,7.16
2023-05-08T04:59:57.040Z,7.03
2023-05-08T05:02:26.385Z,6.90
2023-05-08T05:04:53.755Z,7.05
2023-05-08T05:07:20.972Z,7.11
2023-05-08T05:09:48.513Z,7.23
2023-05-08T05:12:20.394Z,7.57
2023-05-08T05:14:48.233Z,7.83
2023-05-08T05:17:15.728Z,7.60
2023-05-08T05:19:43.348Z,7.80
2023-05-08T05:22:10.598Z,7.84
2023-05-08T05:24:39.850Z,7.59
2023-05-08T05:27:06.916Z,7.59
2023-05-08T05:29:34.909Z,7.62
2023-05-08T05:32:02.535Z,7.53
2023-05-08T05:34:30.420Z,7.52
2023-05-08T05:36:57.876Z,7.95
2023-05-08T05:39:25.443Z,7.55
2023-05-08T05:41:52.468Z,7.93
2023-05-08T05:44:20.151Z,8.19
2023-05-08T05:46:47.969Z,8.37
2023-05-08T05:49:15.449Z,8.51
2023-05-08T05:51:42.809Z,8.93
2023-05-08T05:54:10.214Z,8.51
2023-05-08T05:56:37.645Z,8.09
2023-05-08T05:59:05.373Z,8.51
2023-05-08T06:01:32.391Z,8.60
2023-05-08T06:03:59.821Z,8.67
2023-05-08T06:06:27.143Z,8.67
2023-05-08T06:08:54.439Z,8.85
2023-05-08T06:11:22.776Z,8.75
2023-05-08T06:13:50.724Z,8.34
2023-05-08T06:16:19.211Z,8.63
2023-05-08T06:18:46.261Z,8.80
2023-05-08T06:21:13.686Z,8.88
2023-05-08T06:23:40.764Z,9.22
2023-05-08T06:26:08.259Z,9.83
2023-05-08T06:28:35.600Z,9.51
2023-05-08T06:31:03.167Z,9.42
2023-05-08T06:33:30.600Z,9.79
2023-05-08T06:36:01.128Z,9.37
2023-05-08T06:38:28.078Z,9.30
2023-05-08T06:40:55.620Z,9.82
2023-05-08T06:43:22.827Z,9.90
2023-05-08T06:45:50.141Z,9.98
2023-05-08T06:48:17.404Z,10.26
2023-05-08T06:50:45.326Z,9.96
2023-05-08T06:53:12.262Z,9.73
2023-05-08T06:55:42.854Z,10.11
2023-05-08T06:58:10.224Z,10.29
2023-05-08T07:00:37.686Z,10.38
2023-05-08T07:03:04.918Z,10.58
2023-05-08T07:05:32.801Z,10.38
2023-05-08T07:07:59.830Z,9.81
2023-05-08T07:10:27.262Z,9.92
2023-05-08T07:12:54.806Z,10.24
2023-05-08T07:15:26.366Z,10.33
2023-05-08T07:17:54.140Z,10.10
2023-05-08T07:20:22.024Z,10.81
2023-05-08T07:22:49.250Z,10.70
2023-05-08T07:25:17.123Z,10.70
2023-05-08T07:27:44.854Z,9.74
2023-05-08T07:30:38.926Z,9.65
2023-05-08T07:33:06.266Z,9.89
2023-05-08T07:35:33.863Z,9.72
2023-05-08T07:38:01.165Z,9.46
2023-05-08T07:40:28.791Z,9.12
2023-05-08T07:42:55.811Z,9.43
2023-05-08T07:45:23.188Z,10.24
2023-05-08T07:47:55.655Z,10.14
2023-05-08T07:50:24.995Z,10.26
2023-05-08T07:52:53.120Z,10.53
2023-05-08T07:55:20.667Z,11.10
2023-05-08T07:57:47.899Z,12.03
2023-05-08T08:00:16.390Z,11.82
2023-05-08T08:02:44.449Z,11.77
2023-05-08T08:05:12.729Z,12.08
2023-05-08T08:07:40.490Z,11.60
2023-05-08T08:10:08.860Z,12.04
2023-05-08T08:12:36.257Z,11.74
2023-05-08T08:15:04.129Z,11.86
2023-05-08T08:17:31.380Z,12.11
2023-05-08T08:19:58.825Z,12.36
2023-05-08T08:22:26.742Z,12.18
2023-05-08T08:24:57.035Z,12.36
2023-05-08T08:27:24.281Z,12.56
2023-05-08T08:29:58.524Z,12.42
2023-05-08T08:32:32.128Z,12.48
2023-05-08T08:34:59.774Z,13.06
2023-05-08T08:37:26.902Z,13.34
2023-05-08T08:39:54.611Z,13.38
2023-05-08T08:42:23.600Z,13.82
2023-05-08T08:44:51.474Z,14.05
2023-05-08T08:47:19.829Z,13.73
2023-05-08T08:49:49.778Z,13.52
2023-05-08T08:52:23.072Z,13.11
2023-05-08T08:54:51.102Z,13.04
2023-05-08T08:57:19.949Z,13.33
2023-05-08T08:59:48.264Z,12.31
2023-05-08T09:02:18.112Z,13.23
2023-05-08T09:04:45.872Z,13.23
2023-05-08T09:07:12.956Z,13.57
2023-05-08T09:09:42.001Z,14.08
2023-05-08T09:12:09.626Z,13.49
2023-05-08T09:14:37.270Z,13.05
2023-05-08T09:17:04.510Z,12.75
2023-05-08T09:19:32.165Z,13.26
2023-05-08T09:22:01.283Z,12.80
2023-05-08T09:24:59.977Z,12.51
2023-05-08T09:27:29.092Z,12.84
2023-05-08T09:30:05.085Z,13.05
2023-05-08T09:32:33.652Z,13.70
2023-05-08T09:35:02.101Z,13.72
2023-05-08T09:37:32.178Z,13.28
2023-05-08T09:40:19.071Z,13.45
2023-05-08T09:42:47.333Z,13.60
2023-05-08T09:45:44.396Z,14.44
2023-05-08T09:48:11.652Z,14.01
2023-05-08T09:50:40.093Z,12.78
2023-05-08T09:53:08.281Z,13.16
2023-05-08T09:56:02.136Z,12.81
2023-05-08T09:58:39.857Z,12.92
2023-05-08T10:01:08.239Z,13.42
2023-05-08T10:03:49.300Z,14.12
2023-05-08T10:06:16.885Z,13.86
2023-05-08T10:08:44.191Z,14.88
2023-05-08T10:11:22.283Z,15.10
2023-05-08T10:13:49.375Z,13.80
2023-05-08T10:16:18.767Z,14.46
2023-05-08T10:18:51.000Z,14.36
2023-05-08T10:21:18.406Z,13.95
2023-05-08T10:23:47.513Z,13.46
2023-05-08T10:26:22.157Z,13.10
2023-05-08T10:28:57.929Z,13.40
2023-05-08T10:31:26.657Z,14.12
2023-05-08T10:33:57.118Z,14.32
2023-05-08T10:36:25.090Z,15.02
2023-05-08T10:38:52.709Z,15.64
2023-05-08T10:41:21.011Z,15.77
2023-05-08T10:43:48.950Z,15.44
2023-05-08T10:46:35.105Z,15.27
2023-05-08T10:49:30.189Z,16.00
2023-05-08T10:52:08.771Z,15.21
2023-05-08T10:54:49.000Z,13.64
2023-05-08T10:57:16.786Z,13.47
2023-05-08T10:59:47.563Z,13.24
2023-05-08T11:02:15.848Z,13.73
2023-05-08T11:04:44.229Z,14.72
2023-05-08T11:07:11.695Z,14.17
2023-05-08T11:09:41.949Z,13.90
2023-05-08T11:12:20.563Z,14.19
2023-05-08T11:14:58.379Z,14.77
2023-05-08T11:17:26.542Z,14.79
2023-05-08T11:19:59.089Z,14.85
2023-05-08T11:22:31.248Z,13.30
2023-05-08T11:25:11.987Z,14.07
2023-05-08T11:27:49.120Z,14.30
2023-05-08T11:30:36.729Z,15.05
2023-05-08T11:33:04.679Z,15.42
2023-05-08T11:35:41.468Z,15.18
2023-05-08T11:38:19.045Z,14.75
2023-05-08T11:40:50.282Z,14.81
2023-05-08T11:43:47.331Z,14.53
2023-05-08T11:46:19.841Z,14.93
2023-05-08T11:48:47.837Z,15.53
2023-05-08T11:51:22.328Z,15.57
2023-05-08T11:53:49.903Z,14.88
2023-05-08T11:56:17.034Z,14.83
2023-05-08T11:58:44.957Z,14.49
2023-05-08T12:01:19.913Z,14.19
2023-05-08T12:03:47.542Z,14.96
2023-05-08T12:06:18.343Z,14.11
2023-05-08T12:08:45.721Z,13.86
2023-05-08T12:11:13.552Z,14.12
2023-05-08T12:13:41.140Z,13.98
2023-05-08T12:16:08.383Z,14.28
2023-05-08T12:18:36.959Z,13.91
2023-05-08T12:21:05.314Z,14.47
2023-05-08T12:23:33.556Z,13.78
2023-05-08T12:26:01.461Z,14.05
2023-05-08T12:28:32.432Z,14.26
2023-05-08T12:30:59.683Z,14.15
2023-05-08T12:33:28.854Z,13.53
2023-05-08T12:35:56.417Z,13.82
2023-05-08T12:38:27.550Z,13.60
2023-05-08T12:40:57.417Z,13.13
2023-05-08T12:43:32.544Z,13.76
2023-05-08T12:46:00.048Z,14.05
2023-05-08T12:48:31.810Z,14.92
2023-05-08T12:51:04.129Z,15.22
2023-05-08T12:53:33.885Z,15.45
2023-05-08T12:56:03.699Z,14.51
2023-05-08T12:58:33.634Z,13.97
2023-05-08T13:01:13.359Z,12.87
2023-05-08T13:03:42.038Z,12.40
2023-05-08T13:06:21.137Z,12.58
2023-05-08T13:08:55.256Z,13.14
2023-05-08T13:11:31.475Z,13.55
2023-05-08T13:13:59.028Z,13.63
2023-05-08T13:16:26.506Z,14.35
2023-05-08T13:18:54.048Z,14.93
2023-05-08T13:21:21.617Z,15.54
2023-05-08T13:23:49.013Z,16.14
2023-05-08T13:26:15.981Z,16.05
2023-05-08T13:28:43.364Z,15.34
2023-05-08T13:31:10.553Z,15.00
2023-05-08T13:33:38.502Z,14.57
2023-05-08T13:36:05.727Z,14.52
2023-05-08T13:38:34.810Z,14.32
2023-05-08T13:41:02.118Z,13.88
2023-05-08T13:43:29.495Z,13.81
2023-05-08T13:45:56.826Z,14.37
2023-05-08T13:48:24.209Z,14.68
2023-05-08T13:50:51.476Z,15.00
2023-05-08T13:53:19.153Z,15.36
2023-05-08T13:55:46.588Z,16.38
2023-05-08T13:58:14.143Z,16.47
2023-05-08T14:00:41.801Z,15.95
2023-05-08T14:03:09.244Z,14.54
2023-05-08T14:05:36.942Z,14.59
2023-05-08T14:08:04.937Z,14.00
2023-05-08T14:10:32.356Z,13.78
2023-05-08T14:13:00.037Z,14.13
2023-05-08T14:15:34.756Z,15.29
2023-05-08T14:18:04.337Z,15.62
2023-05-08T14:20:32.436Z,15.70
2023-05-08T14:23:00.402Z,15.34
2023-05-08T14:25:27.914Z,15.06
2023-05-08T14:27:55.571Z,14.81
2023-05-08T14:30:22.982Z,14.93
2023-05-08T14:32:50.932Z,14.53
2023-05-08T14:35:18.044Z,14.73
2023-05-08T14:37:45.687Z,14.62
2023-05-08T14:40:13.158Z,15.10
2023-05-08T14:42:40.909Z,15.73
2023-05-08T14:45:08.624Z,16.27
2023-05-08T14:47:36.819Z,15.71
2023-05-08T14:50:04.622Z,15.20
2023-05-08T14:52:32.494Z,14.95
2023-05-08T14:55:00.813Z,14.21
2023-05-08T14:57:28.680Z,13.68
2023-05-08T14:59:56.922Z,13.47
2023-05-08T15:02:24.652Z,14.03
2023-05-08T15:04:52.372Z,14.28
2023-05-08T15:07:19.816Z,14.50
2023-05-08T15:09:48.346Z,14.76
2023-05-08T15:12:15.890Z,14.80
2023-05-08T15:14:42.907Z,14.74
2023-05-08T15:17:10.615Z,14.52
2023-05-08T15:19:37.846Z,14.17
2023-05-08T15:22:05.249Z,14.36
2023-05-08T15:24:33.094Z,14.18
2023-05-08T15:27:01.121Z,14.05
2023-05-08T15:29:28.341Z,13.97
2023-05-08T15:31:56.717Z,13.74
2023-05-08T15:34:26.474Z,13.76
2023-05-08T15:36:58.113Z,13.77
2023-05-08T15:39:31.386Z,14.14
2023-05-08T15:42:05.109Z,14.70
2023-05-08T15:44:52.613Z,14.89
2023-05-08T15:47:23.418Z,14.99
2023-05-08T15:49:51.810Z,15.38
2023-05-08T15:52:19.964Z,14.83
2023-05-08T15:54:50.601Z,14.27
2023-05-08T15:57:18.620Z,14.34
2023-05-08T15:59:45.625Z,14.28
2023-05-08T16:02:13.353Z,14.25
2023-05-08T16:04:41.267Z,14.77
2023-05-08T16:07:08.705Z,14.34
2023-05-08T16:09:36.317Z,13.33
2023-05-08T16:12:04.059Z,14.73
2023-05-08T16:14:31.404Z,18.13
2023-05-08T16:16:59.201Z,20.31
2023-05-08T16:19:26.522Z,21.76
2023-05-08T16:21:53.934Z,22.39
2023-05-08T16:24:21.282Z,22.02
2023-05-08T16:26:48.996Z,20.86
2023-05-08T16:29:16.141Z,19.55
2023-05-08T16:31:43.740Z,18.12
2023-05-08T16:34:11.361Z,16.94
2023-05-08T16:36:38.942Z,15.79
2023-05-08T16:39:06.145Z,15.28
2023-05-08T16:41:33.817Z,14.54
2023-05-08T16:44:01.004Z,14.75
2023-05-08T16:46:30.483Z,14.26
2023-05-08T16:48:58.850Z,13.55
2023-05-08T16:51:26.674Z,13.89
2023-05-08T16:53:55.510Z,16.64
2023-05-08T16:56:24.970Z,17.23
2023-05-08T16:58:52.346Z,18.86
2023-05-08T17:01:20.707Z,20.17
2023-05-08T17:03:48.455Z,19.24
2023-05-08T17:06:15.968Z,19.54
2023-05-08T17:08:43.500Z,19.94
2023-05-08T17:11:11.916Z,20.40
2023-05-08T17:13:39.203Z,20.51
2023-05-08T17:16:07.457Z,20.25
2023-05-08T17:18:35.134Z,21.51
2023-05-08T17:21:02.584Z,20.39
2023-05-08T17:23:30.263Z,19.03
2023-05-08T17:26:01.883Z,20.32
2023-05-08T17:28:29.107Z,20.36
2023-05-08T17:30:57.429Z,20.01
2023-05-08T17:33:25.508Z,17.45
2023-05-08T17:35:52.876Z,15.95
2023-05-08T17:38:20.621Z,14.35
2023-05-08T17:40:48.835Z,13.34
2023-05-08T17:43:17.000Z,12.84
2023-05-08T17:45:46.218Z,12.43
2023-05-08T17:48:14.264Z,11.79
2023-05-08T17:50:43.668Z,11.49
2023-05-08T17:53:11.291Z,11.25
2023-05-08T17:55:39.526Z,11.06
2023-05-08T17:58:07.160Z,10.93
2023-05-08T18:00:34.815Z,10.54
2023-05-08T18:03:02.777Z,10.37
2023-05-08T18:05:30.952Z,10.33
2023-05-08T18:07:58.405Z,10.07
2023-05-08T18:10:26.574Z,9.90
2023-05-08T18:12:53.818Z,9.72
2023-05-08T18:15:22.120Z,9.53
2023-05-08T18:17:50.050Z,9.41
2023-05-08T18:20:17.474Z,9.32
2023-05-08T18:22:44.704Z,9.28
2023-05-08T18:25:12.739Z,9.19
2023-05-08T18:27:41.315Z,9.12
2023-05-08T18:30:09.307Z,9.09
2023-05-08T18:32:36.982Z,9.09
2023-05-08T18:35:04.605Z,8.99
2023-05-08T18:37:31.963Z,8.89
2023-05-08T18:39:59.834Z,8.72
2023-05-08T18:42:28.146Z,8.61
2023-05-08T18:44:56.081Z,8.54
2023-05-08T18:47:23.336Z,8.48
2023-05-08T18:49:52.570Z,8.36
2023-05-08T18:52:19.736Z,8.33
2023-05-08T18:54:47.412Z,8.31
2023-05-08T18:57:15.062Z,8.28
2023-05-08T18:59:42.942Z,8.26
2023-05-08T19:02:10.948Z,8.12
2023-05-08T19:04:38.803Z,8.01
2023-05-08T19:07:06.176Z,7.99
2023-05-08T19:09:34.630Z,7.99
2023-05-08T19:12:01.928Z,7.97
2023-05-08T19:14:30.247Z,7.92
2023-05-08T19:16:58.663Z,7.84
2023-05-08T19:19:26.931Z,7.89
2023-05-08T19:21:54.753Z,7.77
2023-05-08T19:24:24.474Z,7.74
2023-05-08T19:26:51.794Z,7.77
2023-05-08T19:29:19.362Z,7.63
2023-05-08T19:31:46.870Z,7.74
2023-05-08T19:34:15.443Z,7.66
2023-05-08T19:36:43.110Z,7.54
2023-05-08T19:39:11.149Z,7.52
2023-05-08T19:41:38.714Z,7.47
2023-05-08T19:44:06.630Z,7.52
2023-05-08T19:46:34.830Z,7.49
2023-05-08T19:49:02.548Z,7.45
2023-05-08T19:51:29.809Z,7.35
2023-05-08T19:53:57.429Z,7.33
2023-05-08T19:56:25.185Z,7.34
2023-05-08T19:58:52.891Z,7.24
2023-05-08T20:01:20.756Z,7.25
2023-05-08T20:03:48.770Z,7.27
2023-05-08T20:06:16.395Z,7.22
2023-05-08T20:08:45.575Z,7.22
2023-05-08T20:11:12.823Z,7.19
2023-05-08T20:13:40.534Z,7.16
2023-05-08T20:16:08.529Z,7.20
2023-05-08T20:18:36.212Z,7.11
2023-05-08T20:21:03.483Z,6.97
2023-05-08T20:23:32.370Z,6.92
2023-05-08T20:25:59.676Z,6.91
2023-05-08T20:28:27.351Z,6.89
2023-05-08T20:30:54.928Z,6.86
2023-05-08T20:33:22.496Z,6.84
2023-05-08T20:35:49.581Z,6.85
2023-05-08T20:38:17.268Z,6.87
2023-05-08T20:40:44.733Z,6.79
2023-05-08T20:43:12.646Z,6.82
2023-05-08T20:45:39.875Z,6.80
2023-05-08T20:48:07.294Z,6.81
2023-05-08T20:50:34.825Z,6.74
2023-05-08T20:53:02.479Z,6.72
2023-05-08T20:55:29.651Z,6.63
2023-05-08T20:57:57.893Z,6.67
2023-05-08T21:00:25.418Z,6.60
2023-05-08T21:02:52.752Z,6.72
2023-05-08T21:05:19.829Z,6.68
2023-05-08T21:07:47.572Z,6.61
2023-05-08T21:10:15.017Z,6.60
2023-05-08T21:12:44.691Z,6.53
2023-05-08T21:15:12.091Z,6.42
2023-05-08T21:17:39.402Z,6.46
2023-05-08T21:20:07.282Z,6.36
2023-05-08T21:22:35.013Z,6.39
2023-05-08T21:25:01.926Z,6.32
2023-05-08T21:27:29.177Z,6.28
2023-05-08T21:29:59.585Z,6.27
2023-05-08T21:32:27.045Z,6.16
2023-05-08T21:34:54.250Z,6.22
2023-05-08T21:37:21.937Z,6.15
2023-05-08T21:39:49.167Z,6.11
2023-05-08T21:42:16.388Z,6.05
2023-05-08T21:44:43.660Z,5.98
2023-05-08T21:47:11.055Z,5.96
2023-05-08T21:49:37.962Z,5.92
2023-05-08T21:52:05.625Z,5.88
2023-05-08T21:54:32.555Z,5.83
2023-05-08T21:56:59.737Z,5.86
2023-05-08T21:59:26.725Z,5.89
2023-05-08T22:01:54.124Z,5.81
2023-05-08T22:04:21.183Z,5.75
2023-05-08T22:06:48.769Z,5.68
2023-05-08T22:09:15.634Z,5.71
2023-05-08T22:11:42.916Z,5.67
2023-05-08T22:14:11.799Z,5.65
2023-05-08T22:16:39.274Z,5.63
2023-05-08T22:19:06.405Z,5.60
2023-05-08T22:21:33.920Z,5.60
2023-05-08T22:24:01.045Z,5.56
2023-05-08T22:26:31.185Z,5.59
2023-05-08T22:28:59.686Z,5.64
2023-05-08T22:31:26.938Z,5.63
2023-05-08T22:33:53.883Z,5.53
2023-05-08T22:36:24.391Z,5.51
2023-05-08T22:38:51.371Z,5.44
2023-05-08T22:41:18.969Z,5.45
2023-05-08T22:43:46.525Z,5.47
2023-05-08T22:46:13.906Z,5.49
2023-05-08T22:48:40.997Z,5.43
2023-05-08T22:51:08.882Z,5.45
2023-05-08T22:53:35.993Z,5.49
2023-05-08T22:56:03.365Z,5.45
2023-05-08T22:58:30.967Z,5.44
2023-05-08T23:00:59.769Z,5.37
2023-05-08T23:03:26.778Z,5.28
2023-05-08T23:05:54.405Z,5.29
2023-05-08T23:08:22.679Z,5.26
2023-05-08T23:10:49.960Z,5.26
2023-05-08T23:13:17.421Z,5.25
2023-05-08T23:15:44.666Z,5.17
2023-05-08T23:18:11.826Z,5.22
2023-05-08T23:20:39.262Z,5.26
2023-05-08T23:23:07.284Z,5.17
2023-05-08T23:25:34.530Z,5.06
2023-05-08T23:28:01.965Z,5.09
2023-05-08T23:30:29.407Z,5.04
2023-05-08T23:32:56.487Z,4.99
2023-05-08T23:35:24.307Z,5.04
2023-05-08T23:37:51.974Z,5.04
2023-05-08T23:40:19.210Z,5.06
2023-05-08T23:42:46.412Z,4.93
2023-05-08T23:45:14.064Z,4.93
2023-05-08T23:47:41.558Z,5.00
2023-05-08T23:50:09.246Z,4.98
2023-05-08T23:52:36.402Z,4.93
2023-05-08T23:55:04.009Z,4.89
2023-05-08T23:57:31.002Z,4.85
2023-05-08T23:59:58.313Z,4.83
